createdAt,value
2024-04-18T00:01:11.998Z,5.36
2024-04-18T00:06:01.877Z,6.638
2024-04-18T00:16:10.400Z,5.301
2024-04-18T00:21:01.010Z,5.955
2024-04-18T00:31:15.010Z,7.841
2024-04-18T00:36:03.141Z,8.204
2024-04-18T00:41:06.816Z,6.405
2024-04-18T00:46:08.363Z,5.864
2024-04-18T00:50:58.088Z,6.259
2024-04-18T00:56:05.770Z,6.589
2024-04-18T01:01:05.125Z,5.809
2024-04-18T01:06:05.507Z,7.034
2024-04-18T01:11:03.211Z,6.08
2024-04-18T01:15:59.694Z,8.507
2024-04-18T01:21:03.137Z,7.466
2024-04-18T01:26:01.900Z,6.357
2024-04-18T01:31:05.605Z,6.161
2024-04-18T01:35:56.602Z,8.221
2024-04-18T01:40:56.147Z,6.086
2024-04-18T01:46:03.415Z,6.368
2024-04-18T01:51:01.352Z,5.349
2024-04-18T01:56:02.793Z,5.403
2024-04-18T02:01:07.114Z,5.316
2024-04-18T02:06:00.827Z,5.274
2024-04-18T02:10:59.822Z,5.474
2024-04-18T02:15:58.280Z,6.671
2024-04-18T02:20:58.004Z,7.152
2024-04-18T02:26:01.600Z,6.589
2024-04-18T02:31:06.108Z,4.527
2024-04-18T02:35:56.379Z,8.199
2024-04-18T02:41:03.163Z,6.498
2024-04-18T02:46:01.753Z,6.411
2024-04-18T02:50:56.940Z,7.515
2024-04-18T02:56:01.177Z,9.042
2024-04-18T03:01:10.041Z,9.151
2024-04-18T03:06:02.342Z,7.477
2024-04-18T03:11:03.233Z,7.479
2024-04-18T03:16:06.383Z,6.455
2024-04-18T03:21:01.879Z,7.657
2024-04-18T03:26:09.170Z,3.794
2024-04-18T03:31:01.643Z,7.857
2024-04-18T03:35:58.709Z,6.682
2024-04-18T03:41:05.464Z,5.383
2024-04-18T03:46:03.997Z,7.603
2024-04-18T03:51:05.803Z,6.005
2024-04-18T03:56:05.505Z,9.109
2024-04-18T04:01:04.341Z,7.668
2024-04-18T04:06:02.110Z,9.846
2024-04-18T04:11:06.057Z,8.128
2024-04-18T04:16:04.830Z,9.315
2024-04-18T04:21:09.972Z,7.061
2024-04-18T04:26:01.829Z,8.805
2024-04-18T04:31:05.819Z,10.749
2024-04-18T04:36:05.751Z,7.489
2024-04-18T04:41:07.124Z,8.767
2024-04-18T04:46:20.013Z,4.879
2024-04-18T04:51:14.697Z,7.315
2024-04-18T04:56:11.689Z,6.779
2024-04-18T05:01:23.451Z,6.638
2024-04-18T05:06:09.120Z,6.54
2024-04-18T05:11:16.981Z,7.824
2024-04-18T05:16:10.248Z,7.814
2024-04-18T05:21:06.635Z,8.897
2024-04-18T05:26:06.280Z,6.33
2024-04-18T05:36:11.169Z,5.436
2024-04-18T05:41:14.031Z,6.921
2024-04-18T05:46:07.927Z,8.241
2024-04-18T05:51:14.385Z,6.969
2024-04-18T05:56:07.683Z,6.99
2024-04-18T06:01:13.715Z,7.093
2024-04-18T06:06:11.349Z,7.776
2024-04-18T06:11:10.276Z,8.433
2024-04-18T06:16:15.653Z,7.879
2024-04-18T06:26:10.686Z,9.232
2024-04-18T06:36:09.627Z,7.9
2024-04-18T06:41:09.135Z,6.53
2024-04-18T06:46:17.085Z,6.688
2024-04-18T06:51:15.080Z,6.394
2024-04-18T07:01:24.204Z,3.886
2024-04-18T07:06:13.245Z,4.392
2024-04-18T07:11:10.757Z,3.33
2024-04-18T07:16:09.012Z,2.084
2024-04-18T07:21:10.783Z,2.664
2024-04-18T07:26:11.646Z,3.984
2024-04-18T07:31:09.005Z,4.239
2024-04-18T07:36:12.187Z,5.776
2024-04-18T07:41:15.132Z,4.342
2024-04-18T07:46:14.586Z,3.074
2024-04-18T07:51:14.298Z,3.655
2024-04-18T07:56:12.908Z,6.037
2024-04-18T08:01:18.504Z,5.274
2024-04-18T08:06:20.623Z,5.637
2024-04-18T08:12:34.615Z,4.038
2024-04-18T08:16:20.413Z,6.195
2024-04-18T08:21:13.193Z,6.719
2024-04-18T08:25:59.255Z,5.874
2024-04-18T08:31:09.043Z,4.115
2024-04-18T08:36:11.795Z,5.529
2024-04-18T08:41:06.787Z,6.553
2024-04-18T08:46:16.771Z,4.374
2024-04-18T08:51:11.785Z,4.087
2024-04-18T08:56:08.365Z,6.043
2024-04-18T09:01:15.070Z,5.761
2024-04-18T09:06:11.694Z,7.57
2024-04-18T09:11:14.594Z,6.037
2024-04-18T09:16:08.536Z,4.765
2024-04-18T09:21:11.677Z,7.754
2024-04-18T09:26:10.927Z,6.265
2024-04-18T09:31:24.406Z,6.32
2024-04-18T09:36:11.648Z,4.516
2024-04-18T09:41:09.051Z,3.303
2024-04-18T09:46:15.772Z,3.091
2024-04-18T09:51:05.045Z,4.332
2024-04-18T09:56:07.682Z,4.96
2024-04-18T10:01:14.458Z,3.096
2024-04-18T10:06:06.109Z,3.655
2024-04-18T10:11:12.452Z,3.432
2024-04-18T10:16:13.448Z,2.77
2024-04-18T10:21:04.947Z,4.102
2024-04-18T10:26:08.271Z,4.207
2024-04-18T10:31:09.290Z,3.973
2024-04-18T10:36:09.582Z,4.586
2024-04-18T10:41:10.217Z,2.084
2024-04-18T10:46:06.314Z,5.89
2024-04-18T10:51:09.912Z,2.306
2024-04-18T10:56:13.495Z,1.137
2024-04-18T11:01:14.898Z,3.006
2024-04-18T11:06:06.130Z,2.274
2024-04-18T11:11:06.735Z,2.794
2024-04-18T11:16:11.913Z,2.961
2024-04-18T11:21:04.181Z,1.656
2024-04-18T11:26:08.540Z,1.332
2024-04-18T11:31:10.915Z,2.279
2024-04-18T11:36:06.528Z,3.037
2024-04-18T11:41:02.738Z,3.805
2024-04-18T11:46:12.344Z,1.656
2024-04-18T11:51:09.456Z,2.794
2024-04-18T11:56:12.364Z,2.604
2024-04-18T12:01:08.764Z,4.428
2024-04-18T12:06:07.304Z,3.189
2024-04-18T12:11:08.243Z,6.189
2024-04-18T12:16:07.208Z,5.214
2024-04-18T12:21:11.552Z,4.613
2024-04-18T12:26:10.665Z,1.461
2024-04-18T12:31:14.770Z,1.949
2024-04-18T12:36:10.424Z,1.299
2024-04-18T12:41:11.359Z,3.578
2024-04-18T12:46:30.033Z,1.602
2024-04-18T12:51:09.744Z,1.299
2024-04-18T12:56:03.014Z,0.649
2024-04-18T13:01:18.992Z,1.688
2024-04-18T13:06:07.567Z,2.794
2024-04-18T13:11:08.340Z,1.434
2024-04-18T13:16:14.872Z,0.487
2024-04-18T13:21:00.101Z,1.688
2024-04-18T13:26:08.097Z,0.649
2024-04-18T13:31:14.404Z,2.148
2024-04-18T13:36:06.672Z,1.407
2024-04-18T13:40:59.326Z,1.596
2024-04-18T13:46:09.423Z,1.958
2024-04-18T13:51:04.844Z,1.363
2024-04-18T13:56:06.643Z,0.649
2024-04-18T14:01:10.287Z,1.006
2024-04-18T14:06:07.856Z,1.461
2024-04-18T14:11:04.942Z,2.473
2024-04-18T14:16:06.436Z,2.761
2024-04-18T14:21:04.697Z,0.974
2024-04-18T14:26:08.828Z,2.12
2024-04-18T14:31:07.428Z,2.175
2024-04-18T14:36:09.785Z,1.494
2024-04-18T14:41:16.060Z,1.558
2024-04-18T14:46:09.677Z,0.812
2024-04-18T14:51:09.509Z,2.414
2024-04-18T14:56:04.815Z,0.487
2024-04-18T15:01:06.666Z,3.004
2024-04-18T15:06:07.346Z,1.84
2024-04-18T15:11:08.775Z,1.949
2024-04-18T15:16:12.218Z,2.929
2024-04-18T15:21:07.185Z,2.526
2024-04-18T15:31:14.982Z,3.48
2024-04-18T15:36:10.770Z,4.093
2024-04-18T15:41:12.438Z,2.896
2024-04-18T15:46:16.864Z,2.929
2024-04-18T15:51:11.734Z,2.631
2024-04-18T15:56:13.870Z,2.901
2024-04-18T16:01:11.245Z,2.517
2024-04-18T16:06:07.644Z,3.193
2024-04-18T16:11:04.128Z,2.473
2024-04-18T16:16:13.944Z,2.739
2024-04-18T16:26:02.754Z,2.192
2024-04-18T16:31:11.288Z,2.343
2024-04-18T16:36:00.101Z,2.956
2024-04-18T16:41:05.690Z,2.729
2024-04-18T16:46:10.588Z,2.55
2024-04-18T16:51:03.825Z,2.668
2024-04-18T16:56:11.690Z,2.734
2024-04-18T17:01:22.406Z,3.448
2024-04-18T17:06:08.308Z,8.025
2024-04-18T17:11:07.823Z,6.226
2024-04-18T17:16:09.323Z,4.651
2024-04-18T17:21:05.045Z,2.766
2024-04-18T17:26:07.806Z,5.512
2024-04-18T17:31:07.122Z,5.739
2024-04-18T17:36:06.149Z,2.895
2024-04-18T17:46:22.824Z,7.814
2024-04-18T17:51:08.947Z,4.233
2024-04-18T17:56:03.692Z,2.761
2024-04-18T18:01:15.585Z,7.993
2024-04-18T18:06:06.830Z,4.663
2024-04-18T18:11:01.141Z,3.713
2024-04-18T18:16:00.836Z,5.654
2024-04-18T18:21:04.701Z,3.908
2024-04-18T18:26:03.903Z,4.721
2024-04-18T18:31:17.590Z,6.449
2024-04-18T18:36:02.811Z,2.815
2024-04-18T18:41:03.235Z,5.691
2024-04-18T18:46:19.731Z,2.355
2024-04-18T18:56:06.296Z,4.77
2024-04-18T19:01:10.823Z,4.603
2024-04-18T19:06:01.580Z,3.124
2024-04-18T19:10:55.460Z,5.94
2024-04-18T19:16:03.081Z,6.774
2024-04-18T19:21:02.882Z,6.645
2024-04-18T19:31:13.325Z,4.012
2024-04-18T19:36:02.345Z,4.353
2024-04-18T19:41:02.583Z,3.091
2024-04-18T19:46:12.664Z,3.259
2024-04-18T19:51:03.167Z,2.982
2024-04-18T19:56:03.297Z,2.794
2024-04-18T20:01:19.041Z,4.143
2024-04-18T20:06:03.242Z,4.338
2024-04-18T20:11:11.038Z,4.228
2024-04-18T20:16:19.685Z,3.855
2024-04-18T20:26:04.229Z,4.699
2024-04-18T20:31:11.775Z,4.359
2024-04-18T20:36:06.279Z,3.141
2024-04-18T20:41:03.102Z,3.519
2024-04-18T20:46:12.471Z,3.866
2024-04-18T20:56:03.863Z,4.846
2024-04-18T21:01:14.545Z,3.578
2024-04-18T21:06:03.329Z,4.109
2024-04-18T21:11:03.598Z,5.577
2024-04-18T21:16:00.863Z,3.844
2024-04-18T21:20:54.838Z,5.599
2024-04-18T21:26:02.360Z,5.062
2024-04-18T21:31:03.524Z,3.79
2024-04-18T21:36:01.504Z,6.377
2024-04-18T21:41:05.558Z,5.626
2024-04-18T21:46:05.040Z,4.629
2024-04-18T21:51:02.167Z,2.144
2024-04-18T21:56:04.394Z,3.193
2024-04-18T22:01:24.463Z,3.151
2024-04-18T22:06:12.561Z,5.154
2024-04-18T22:10:59.125Z,3.476
2024-04-18T22:16:25.523Z,4.727
2024-04-18T22:21:04.329Z,5.295
2024-04-18T22:26:06.461Z,5.349
2024-04-18T22:31:08.942Z,5.252
2024-04-18T22:36:03.400Z,3.957
2024-04-18T22:40:57.241Z,6.556
2024-04-18T22:46:06.149Z,5.387
2024-04-18T22:50:57.284Z,4.623
2024-04-18T22:56:02.156Z,3.574
2024-04-18T23:01:08.303Z,3.763
2024-04-18T23:06:03.719Z,4.293
2024-04-18T23:11:03.367Z,4.007
2024-04-18T23:15:59.403Z,3.611
2024-04-18T23:20:51.843Z,3.222
2024-04-18T23:25:54.571Z,3.53
2024-04-18T23:30:57.640Z,3.307
2024-04-18T23:35:55.028Z,3.763
2024-04-18T23:40:51.571Z,4.158
2024-04-18T23:46:01.126Z,2.842
2024-04-18T23:50:58.560Z,6.736
2024-04-18T23:56:01.730Z,3.709
